FDB225 OBBI-OMDW
Flight info
| Callsign | FDB225 |
|---|---|
| Flight time | 1h 3m |
| Altitude | 25000 |
| Route | DCT BHR N697 SODAK P559 KIVUS G666 ELOVU ELOVU3Z |
| Aircraft | B737/M-NIL/C |
Departure
| Time | 2026-04-20 17:41 |
|---|---|
| Airport | Bahrain International Airport (OBBI) |
Arrival
| Time | 2026-04-20 18:45 |
|---|---|
| Airport | Al Maktoum International Airport (OMDW) |
| Time | Latitude | Longitude | Altitude | Speed | Heading |
|---|---|---|---|---|---|
| 2026-04-20 17:13 | 26.27163 | 50.62433 | 28 ft | 0 kts | 213° |
| 2026-04-20 17:15 | 26.26997 | 50.62723 | 31 ft | 0 kts | 213° |
| 2026-04-20 17:27 | 26.26998 | 50.62723 | 31 ft | 2 kts | 213° |
| 2026-04-20 17:27 | 26.27020 | 50.62739 | 31 ft | 2 kts | 212° |
| 2026-04-20 17:28 | 26.27034 | 50.62748 | 32 ft | 1 kts | 201° |
| 2026-04-20 17:28 | 26.27047 | 50.62751 | 32 ft | 1 kts | 177° |
| 2026-04-20 17:28 | 26.27060 | 50.62748 | 32 ft | 1 kts | 154° |
| 2026-04-20 17:28 | 26.27070 | 50.62740 | 32 ft | 1 kts | 132° |
| 2026-04-20 17:29 | 26.27076 | 50.62731 | 33 ft | 0 kts | 122° |
| 2026-04-20 17:31 | 26.27076 | 50.62732 | 33 ft | 0 kts | 122° |
| 2026-04-20 17:31 | 26.27073 | 50.62738 | 33 ft | 1 kts | 104° |
| 2026-04-20 17:31 | 26.27070 | 50.62756 | 33 ft | 4 kts | 101° |
| 2026-04-20 17:31 | 26.27059 | 50.62815 | 31 ft | 11 kts | 99° |
| 2026-04-20 17:32 | 26.27095 | 50.62920 | 29 ft | 18 kts | 72° |
| 2026-04-20 17:32 | 26.27039 | 50.63073 | 26 ft | 25 kts | 123° |
| 2026-04-20 17:32 | 26.26931 | 50.63261 | 25 ft | 31 kts | 122° |
| 2026-04-20 17:32 | 26.26800 | 50.63487 | 25 ft | 37 kts | 124° |
| 2026-04-20 17:33 | 26.26644 | 50.63749 | 21 ft | 43 kts | 124° |
| 2026-04-20 17:33 | 26.26483 | 50.64034 | 18 ft | 43 kts | 121° |
| 2026-04-20 17:33 | 26.26351 | 50.64273 | 18 ft | 6 kts | 122° |
| 2026-04-20 17:33 | 26.26348 | 50.64277 | 18 ft | 0 kts | 122° |
| 2026-04-20 17:34 | 26.26341 | 50.64289 | 18 ft | 4 kts | 123° |
| 2026-04-20 17:34 | 26.26302 | 50.64355 | 18 ft | 16 kts | 123° |
| 2026-04-20 17:34 | 26.26222 | 50.64496 | 18 ft | 27 kts | 122° |
| 2026-04-20 17:35 | 26.26110 | 50.64708 | 18 ft | 34 kts | 120° |
| 2026-04-20 17:35 | 26.26026 | 50.64881 | 17 ft | 0 kts | 96° |
| 2026-04-20 17:35 | 26.26026 | 50.64889 | 17 ft | 2 kts | 88° |
| 2026-04-20 17:36 | 26.26037 | 50.64934 | 16 ft | 9 kts | 60° |
| 2026-04-20 17:36 | 26.26107 | 50.64986 | 15 ft | 15 kts | 4° |
| 2026-04-20 17:36 | 26.26162 | 50.64953 | 16 ft | 0 kts | 306° |
| 2026-04-20 17:37 | 26.26162 | 50.64952 | 16 ft | 0 kts | 306° |
| 2026-04-20 17:37 | 26.26214 | 50.64864 | 16 ft | 46 kts | 303° |
| 2026-04-20 17:37 | 26.26401 | 50.64544 | 18 ft | 23 kts | 303° |
| 2026-04-20 17:37 | 26.26412 | 50.64526 | 18 ft | 0 kts | 302° |
| 2026-04-20 17:40 | 26.26470 | 50.64424 | 18 ft | 50 kts | 302° |
| 2026-04-20 17:41 | 26.26799 | 50.63850 | 21 ft | 124 kts | 303° |
| 2026-04-20 17:41 | 26.27394 | 50.62851 | 109 ft | 178 kts | 305° |
| 2026-04-20 17:41 | 26.28198 | 50.61675 | 581 ft | 204 kts | 318° |
| 2026-04-20 17:41 | 26.29464 | 50.60915 | 1376 ft | 217 kts | 345° |
| 2026-04-20 17:42 | 26.30970 | 50.60547 | 2137 ft | 233 kts | 348° |
| 2026-04-20 17:42 | 26.32612 | 50.60173 | 2848 ft | 252 kts | 348° |
| 2026-04-20 17:42 | 26.34383 | 50.59769 | 3561 ft | 271 kts | 348° |
| 2026-04-20 17:42 | 26.36290 | 50.59335 | 4102 ft | 288 kts | 348° |
| 2026-04-20 17:43 | 26.38240 | 50.58890 | 4504 ft | 285 kts | 348° |
| 2026-04-20 17:43 | 26.40189 | 50.58754 | 4970 ft | 287 kts | 7° |
| 2026-04-20 17:43 | 26.42114 | 50.59410 | 5466 ft | 289 kts | 27° |
| 2026-04-20 17:43 | 26.43704 | 50.60750 | 5975 ft | 291 kts | 47° |
| 2026-04-20 17:44 | 26.44935 | 50.62518 | 6504 ft | 293 kts | 52° |
| 2026-04-20 17:44 | 26.46200 | 50.64320 | 7002 ft | 296 kts | 52° |
| 2026-04-20 17:44 | 26.47464 | 50.66122 | 7502 ft | 298 kts | 52° |
| 2026-04-20 17:44 | 26.48760 | 50.67970 | 8040 ft | 313 kts | 52° |
| 2026-04-20 17:45 | 26.50127 | 50.69918 | 8634 ft | 330 kts | 52° |
| 2026-04-20 17:45 | 26.51577 | 50.71986 | 9257 ft | 341 kts | 52° |
| 2026-04-20 17:45 | 26.53020 | 50.74044 | 9819 ft | 343 kts | 52° |
| 2026-04-20 17:45 | 26.54506 | 50.76166 | 10393 ft | 344 kts | 52° |
| 2026-04-20 17:46 | 26.55975 | 50.78262 | 11092 ft | 347 kts | 52° |
| 2026-04-20 17:46 | 26.57457 | 50.80387 | 11771 ft | 351 kts | 54° |
| 2026-04-20 17:46 | 26.58598 | 50.82815 | 12384 ft | 354 kts | 71° |
| 2026-04-20 17:46 | 26.59089 | 50.85477 | 13056 ft | 357 kts | 83° |
| 2026-04-20 17:47 | 26.59512 | 50.88235 | 13752 ft | 362 kts | 81° |
| 2026-04-20 17:47 | 26.59952 | 50.91009 | 14441 ft | 366 kts | 81° |
| 2026-04-20 17:47 | 26.60400 | 50.93803 | 15125 ft | 369 kts | 82° |
| 2026-04-20 17:47 | 26.60716 | 50.96656 | 15792 ft | 373 kts | 83° |
| 2026-04-20 17:48 | 26.61101 | 50.99511 | 16443 ft | 376 kts | 82° |
| 2026-04-20 17:48 | 26.61497 | 51.02398 | 17110 ft | 379 kts | 82° |
| 2026-04-20 17:48 | 26.61902 | 51.05305 | 17796 ft | 382 kts | 82° |
| 2026-04-20 17:48 | 26.62320 | 51.08247 | 18490 ft | 385 kts | 82° |
| 2026-04-20 17:49 | 26.62747 | 51.11211 | 18912 ft | 391 kts | 82° |
| 2026-04-20 17:49 | 26.63179 | 51.14203 | 18861 ft | 392 kts | 82° |
| 2026-04-20 17:49 | 26.63606 | 51.17155 | 18914 ft | 387 kts | 82° |
| 2026-04-20 17:49 | 26.63964 | 51.20139 | 19342 ft | 385 kts | 84° |
| 2026-04-20 17:50 | 26.64305 | 51.23096 | 19876 ft | 388 kts | 84° |
| 2026-04-20 17:50 | 26.64654 | 51.26089 | 20435 ft | 393 kts | 84° |
| 2026-04-20 17:50 | 26.64747 | 51.29118 | 20943 ft | 393 kts | 97° |
| 2026-04-20 17:50 | 26.64134 | 51.32094 | 21520 ft | 391 kts | 109° |
| 2026-04-20 17:51 | 26.63569 | 51.35074 | 22082 ft | 396 kts | 100° |
| 2026-04-20 17:51 | 26.63147 | 51.38114 | 22656 ft | 398 kts | 100° |
| 2026-04-20 17:51 | 26.62731 | 51.41149 | 23201 ft | 400 kts | 100° |
| 2026-04-20 17:51 | 26.62308 | 51.44234 | 23756 ft | 402 kts | 100° |
| 2026-04-20 17:52 | 26.61798 | 51.47266 | 24288 ft | 403 kts | 104° |
| 2026-04-20 17:52 | 26.61171 | 51.50333 | 24814 ft | 405 kts | 104° |
| 2026-04-20 17:52 | 26.60477 | 51.53395 | 24856 ft | 410 kts | 106° |
| 2026-04-20 17:52 | 26.59745 | 51.56441 | 24890 ft | 407 kts | 106° |
| 2026-04-20 17:53 | 26.59014 | 51.59485 | 24880 ft | 410 kts | 106° |
| 2026-04-20 17:53 | 26.58258 | 51.62621 | 24921 ft | 425 kts | 106° |
| 2026-04-20 17:53 | 26.57483 | 51.65827 | 24975 ft | 435 kts | 107° |
| 2026-04-20 17:53 | 26.56685 | 51.69076 | 24929 ft | 436 kts | 108° |
| 2026-04-20 17:54 | 26.55747 | 51.72279 | 24904 ft | 432 kts | 109° |
| 2026-04-20 17:54 | 26.54808 | 51.75461 | 24881 ft | 431 kts | 109° |
| 2026-04-20 17:54 | 26.53868 | 51.78650 | 24889 ft | 431 kts | 109° |
| 2026-04-20 17:54 | 26.52936 | 51.81810 | 24886 ft | 431 kts | 109° |
| 2026-04-20 17:55 | 26.52005 | 51.84968 | 24885 ft | 432 kts | 109° |
| 2026-04-20 17:55 | 26.51015 | 51.88139 | 24876 ft | 431 kts | 112° |
| 2026-04-20 17:55 | 26.49928 | 51.91246 | 24892 ft | 431 kts | 112° |
| 2026-04-20 17:55 | 26.48838 | 51.94365 | 24883 ft | 431 kts | 112° |
| 2026-04-20 17:56 | 26.47753 | 51.97468 | 24885 ft | 431 kts | 112° |
| 2026-04-20 17:56 | 26.46664 | 52.00585 | 24885 ft | 431 kts | 112° |
| 2026-04-20 17:56 | 26.45581 | 52.03684 | 24884 ft | 431 kts | 112° |
| 2026-04-20 17:56 | 26.44489 | 52.06809 | 24885 ft | 431 kts | 112° |
| 2026-04-20 17:57 | 26.43411 | 52.09895 | 24884 ft | 431 kts | 112° |
| 2026-04-20 17:57 | 26.42331 | 52.12990 | 24884 ft | 431 kts | 112° |
| 2026-04-20 17:57 | 26.41236 | 52.16126 | 24884 ft | 431 kts | 112° |
| 2026-04-20 17:57 | 26.40157 | 52.19217 | 24884 ft | 431 kts | 112° |
| 2026-04-20 17:58 | 26.39067 | 52.22343 | 24884 ft | 431 kts | 112° |
| 2026-04-20 17:58 | 26.37989 | 52.25433 | 24883 ft | 431 kts | 112° |
| 2026-04-20 17:58 | 26.36906 | 52.28537 | 24883 ft | 431 kts | 112° |
| 2026-04-20 17:58 | 26.35813 | 52.31671 | 24883 ft | 431 kts | 112° |
| 2026-04-20 17:59 | 26.34738 | 52.34756 | 24883 ft | 431 kts | 112° |
| 2026-04-20 17:59 | 26.33654 | 52.37867 | 24883 ft | 431 kts | 112° |
| 2026-04-20 17:59 | 26.32563 | 52.40995 | 24883 ft | 431 kts | 112° |
| 2026-04-20 17:59 | 26.31482 | 52.44099 | 24883 ft | 431 kts | 112° |
| 2026-04-20 18:00 | 26.30399 | 52.47209 | 24882 ft | 431 kts | 112° |
| 2026-04-20 18:00 | 26.29321 | 52.50304 | 24882 ft | 431 kts | 112° |
| 2026-04-20 18:00 | 26.28249 | 52.53384 | 24882 ft | 431 kts | 112° |
| 2026-04-20 18:00 | 26.27162 | 52.56508 | 24882 ft | 431 kts | 112° |
| 2026-04-20 18:01 | 26.26075 | 52.59631 | 24882 ft | 431 kts | 112° |
| 2026-04-20 18:01 | 26.24997 | 52.62728 | 24882 ft | 431 kts | 112° |
| 2026-04-20 18:01 | 26.23939 | 52.65770 | 24882 ft | 431 kts | 112° |
| 2026-04-20 18:01 | 26.22845 | 52.68915 | 24885 ft | 431 kts | 112° |
| 2026-04-20 18:02 | 26.21757 | 52.72041 | 24884 ft | 431 kts | 112° |
| 2026-04-20 18:02 | 26.20687 | 52.75117 | 24884 ft | 431 kts | 112° |
| 2026-04-20 18:02 | 26.19605 | 52.78226 | 24884 ft | 431 kts | 112° |
| 2026-04-20 18:02 | 26.18529 | 52.81320 | 24884 ft | 431 kts | 112° |
| 2026-04-20 18:03 | 26.17453 | 52.84415 | 24884 ft | 431 kts | 112° |
| 2026-04-20 18:03 | 26.16365 | 52.87546 | 24884 ft | 431 kts | 112° |
| 2026-04-20 18:03 | 26.15289 | 52.90642 | 24884 ft | 431 kts | 112° |
| 2026-04-20 18:03 | 26.14212 | 52.93740 | 24883 ft | 431 kts | 112° |
| 2026-04-20 18:04 | 26.13134 | 52.96843 | 24883 ft | 431 kts | 112° |
| 2026-04-20 18:04 | 26.11997 | 52.99930 | 24881 ft | 431 kts | 113° |
| 2026-04-20 18:04 | 26.10873 | 53.03003 | 24885 ft | 431 kts | 113° |
| 2026-04-20 18:04 | 26.09739 | 53.06101 | 24883 ft | 431 kts | 113° |
| 2026-04-20 18:05 | 26.07492 | 53.12242 | 24883 ft | 431 kts | 113° |
| 2026-04-20 18:05 | 26.06365 | 53.15324 | 24882 ft | 431 kts | 113° |
| 2026-04-20 18:05 | 26.05246 | 53.18384 | 24882 ft | 431 kts | 113° |
| 2026-04-20 18:06 | 26.04118 | 53.21470 | 24882 ft | 431 kts | 113° |
| 2026-04-20 18:06 | 26.02989 | 53.24558 | 24882 ft | 431 kts | 113° |
| 2026-04-20 18:06 | 26.01871 | 53.27617 | 24882 ft | 431 kts | 113° |
| 2026-04-20 18:06 | 26.00759 | 53.30661 | 24882 ft | 431 kts | 113° |
| 2026-04-20 18:07 | 25.99629 | 53.33754 | 24882 ft | 431 kts | 113° |
| 2026-04-20 18:07 | 25.98494 | 53.36860 | 24881 ft | 431 kts | 113° |
| 2026-04-20 18:07 | 25.97380 | 53.39910 | 24787 ft | 433 kts | 113° |
| 2026-04-20 18:07 | 25.96248 | 53.43015 | 24451 ft | 430 kts | 113° |
| 2026-04-20 18:08 | 25.95144 | 53.46055 | 24081 ft | 419 kts | 113° |
| 2026-04-20 18:08 | 25.94082 | 53.48990 | 23724 ft | 408 kts | 113° |
| 2026-04-20 18:08 | 25.93046 | 53.51863 | 23368 ft | 398 kts | 113° |
| 2026-04-20 18:08 | 25.92020 | 53.54720 | 23015 ft | 391 kts | 113° |
| 2026-04-20 18:09 | 25.91023 | 53.57500 | 22652 ft | 390 kts | 113° |
| 2026-04-20 18:09 | 25.90029 | 53.60278 | 22305 ft | 392 kts | 113° |
| 2026-04-20 18:09 | 25.89045 | 53.63030 | 21998 ft | 393 kts | 113° |
| 2026-04-20 18:09 | 25.88068 | 53.65762 | 21683 ft | 393 kts | 113° |
| 2026-04-20 18:10 | 25.87362 | 53.67737 | 21456 ft | 392 kts | 113° |
| 2026-04-20 18:10 | 25.86088 | 53.71301 | 21042 ft | 389 kts | 113° |
| 2026-04-20 18:10 | 25.85097 | 53.74076 | 20719 ft | 388 kts | 113° |
| 2026-04-20 18:10 | 25.84115 | 53.76825 | 20398 ft | 387 kts | 113° |
| 2026-04-20 18:11 | 25.83125 | 53.79597 | 20073 ft | 386 kts | 113° |
| 2026-04-20 18:11 | 25.82139 | 53.82356 | 19749 ft | 384 kts | 113° |
| 2026-04-20 18:11 | 25.81157 | 53.85102 | 19425 ft | 383 kts | 113° |
| 2026-04-20 18:11 | 25.80176 | 53.87844 | 19100 ft | 382 kts | 113° |
| 2026-04-20 18:12 | 25.79193 | 53.90586 | 18774 ft | 381 kts | 113° |
| 2026-04-20 18:12 | 25.78225 | 53.93286 | 18452 ft | 379 kts | 113° |
| 2026-04-20 18:12 | 25.77252 | 53.95997 | 18128 ft | 378 kts | 113° |
| 2026-04-20 18:12 | 25.76181 | 53.98661 | 17754 ft | 376 kts | 122° |
| 2026-04-20 18:13 | 25.74602 | 54.00897 | 17325 ft | 373 kts | 137° |
| 2026-04-20 18:13 | 25.72512 | 54.02600 | 16937 ft | 369 kts | 152° |
| 2026-04-20 18:13 | 25.70144 | 54.03592 | 16561 ft | 366 kts | 166° |
| 2026-04-20 18:13 | 25.67691 | 54.04230 | 16245 ft | 364 kts | 167° |
| 2026-04-20 18:14 | 25.65222 | 54.04866 | 15919 ft | 364 kts | 167° |
| 2026-04-20 18:14 | 25.62786 | 54.05494 | 15591 ft | 356 kts | 167° |
| 2026-04-20 18:14 | 25.60431 | 54.06101 | 15516 ft | 341 kts | 167° |
| 2026-04-20 18:14 | 25.58178 | 54.06683 | 15333 ft | 330 kts | 167° |
| 2026-04-20 18:15 | 25.55992 | 54.07249 | 15138 ft | 321 kts | 167° |
| 2026-04-20 18:15 | 25.53809 | 54.07814 | 14960 ft | 318 kts | 167° |
| 2026-04-20 18:15 | 25.51686 | 54.08364 | 14874 ft | 319 kts | 167° |
| 2026-04-20 18:15 | 25.49504 | 54.08929 | 14889 ft | 322 kts | 167° |
| 2026-04-20 18:16 | 25.47330 | 54.09492 | 14884 ft | 324 kts | 167° |
| 2026-04-20 18:16 | 25.45142 | 54.10059 | 14885 ft | 324 kts | 167° |
| 2026-04-20 18:16 | 25.42946 | 54.10628 | 14884 ft | 324 kts | 167° |
| 2026-04-20 18:16 | 25.41487 | 54.11006 | 14872 ft | 324 kts | 167° |
| 2026-04-20 18:17 | 25.38550 | 54.11766 | 14381 ft | 328 kts | 167° |
| 2026-04-20 18:17 | 25.36331 | 54.12341 | 14027 ft | 324 kts | 167° |
| 2026-04-20 18:17 | 25.34167 | 54.12900 | 13670 ft | 320 kts | 167° |
| 2026-04-20 18:17 | 25.32012 | 54.13456 | 13314 ft | 317 kts | 167° |
| 2026-04-20 18:18 | 25.29897 | 54.14001 | 12966 ft | 316 kts | 167° |
| 2026-04-20 18:18 | 25.27742 | 54.14555 | 12614 ft | 315 kts | 167° |
| 2026-04-20 18:18 | 25.25624 | 54.15097 | 12267 ft | 315 kts | 167° |
| 2026-04-20 18:18 | 25.23497 | 54.15640 | 11918 ft | 314 kts | 167° |
| 2026-04-20 18:19 | 25.21378 | 54.16179 | 11568 ft | 313 kts | 167° |
| 2026-04-20 18:19 | 25.19270 | 54.16716 | 11216 ft | 311 kts | 167° |
| 2026-04-20 18:19 | 25.17173 | 54.17251 | 10865 ft | 309 kts | 167° |
| 2026-04-20 18:19 | 25.15102 | 54.17779 | 10516 ft | 308 kts | 167° |
| 2026-04-20 18:20 | 25.13010 | 54.18313 | 10162 ft | 306 kts | 167° |
| 2026-04-20 18:20 | 25.10978 | 54.18831 | 9984 ft | 300 kts | 167° |
| 2026-04-20 18:20 | 25.08961 | 54.19346 | 9994 ft | 300 kts | 167° |
| 2026-04-20 18:20 | 25.06907 | 54.19870 | 9998 ft | 304 kts | 167° |
| 2026-04-20 18:21 | 25.04902 | 54.20591 | 10000 ft | 305 kts | 159° |
| 2026-04-20 18:21 | 25.02924 | 54.21452 | 9984 ft | 307 kts | 154° |
| 2026-04-20 18:21 | 25.01189 | 54.22814 | 9786 ft | 309 kts | 134° |
| 2026-04-20 18:21 | 24.99956 | 54.24724 | 9553 ft | 307 kts | 116° |
| 2026-04-20 18:22 | 24.99354 | 54.26957 | 9289 ft | 305 kts | 97° |
| 2026-04-20 18:22 | 24.99179 | 54.29281 | 9045 ft | 303 kts | 93° |
| 2026-04-20 18:22 | 24.99065 | 54.31600 | 8793 ft | 302 kts | 93° |
| 2026-04-20 18:22 | 24.98953 | 54.33909 | 8543 ft | 301 kts | 93° |
| 2026-04-20 18:23 | 24.98842 | 54.36204 | 8293 ft | 300 kts | 93° |
| 2026-04-20 18:23 | 24.98732 | 54.38480 | 8052 ft | 299 kts | 93° |
| 2026-04-20 18:23 | 24.98622 | 54.40751 | 8012 ft | 295 kts | 93° |
| 2026-04-20 18:23 | 24.98513 | 54.43003 | 7997 ft | 297 kts | 93° |
| 2026-04-20 18:24 | 24.98405 | 54.45255 | 7980 ft | 291 kts | 93° |
| 2026-04-20 18:24 | 24.98300 | 54.47440 | 7953 ft | 277 kts | 93° |
| 2026-04-20 18:24 | 24.98201 | 54.49506 | 7934 ft | 263 kts | 93° |
| 2026-04-20 18:24 | 24.98108 | 54.51482 | 7953 ft | 258 kts | 93° |
| 2026-04-20 18:25 | 24.98013 | 54.53469 | 7998 ft | 262 kts | 93° |
| 2026-04-20 18:25 | 24.97917 | 54.55504 | 7995 ft | 266 kts | 93° |
| 2026-04-20 18:25 | 24.97821 | 54.57527 | 7994 ft | 266 kts | 93° |
| 2026-04-20 18:25 | 24.97725 | 54.59559 | 7994 ft | 265 kts | 93° |
| 2026-04-20 18:26 | 24.97629 | 54.61587 | 7994 ft | 265 kts | 93° |
| 2026-04-20 18:26 | 24.97534 | 54.63596 | 7994 ft | 265 kts | 93° |
| 2026-04-20 18:26 | 24.97438 | 54.65614 | 7994 ft | 265 kts | 93° |
| 2026-04-20 18:26 | 24.97324 | 54.67633 | 7993 ft | 265 kts | 95° |
| 2026-04-20 18:27 | 24.97164 | 54.69671 | 7995 ft | 265 kts | 95° |
| 2026-04-20 18:27 | 24.97005 | 54.71682 | 7994 ft | 265 kts | 95° |
| 2026-04-20 18:27 | 24.96846 | 54.73702 | 7994 ft | 265 kts | 95° |
| 2026-04-20 18:27 | 24.96688 | 54.75712 | 7994 ft | 265 kts | 95° |
| 2026-04-20 18:28 | 24.96528 | 54.77745 | 7994 ft | 265 kts | 95° |
| 2026-04-20 18:28 | 24.96369 | 54.79764 | 7994 ft | 265 kts | 95° |
| 2026-04-20 18:28 | 24.96211 | 54.81785 | 7994 ft | 265 kts | 95° |
| 2026-04-20 18:28 | 24.96052 | 54.83805 | 7994 ft | 265 kts | 95° |
| 2026-04-20 18:29 | 24.95895 | 54.85805 | 7994 ft | 265 kts | 95° |
| 2026-04-20 18:29 | 24.95507 | 54.87802 | 7969 ft | 264 kts | 112° |
| 2026-04-20 18:29 | 24.94691 | 54.89575 | 7998 ft | 264 kts | 122° |
| 2026-04-20 18:29 | 24.93718 | 54.91291 | 7995 ft | 265 kts | 122° |
| 2026-04-20 18:30 | 24.92738 | 54.93010 | 7995 ft | 264 kts | 122° |
| 2026-04-20 18:30 | 24.91777 | 54.94696 | 7994 ft | 264 kts | 122° |
| 2026-04-20 18:30 | 24.90800 | 54.96411 | 7994 ft | 264 kts | 122° |
| 2026-04-20 18:30 | 24.89853 | 54.98071 | 7994 ft | 264 kts | 122° |
| 2026-04-20 18:31 | 24.88859 | 54.99816 | 7995 ft | 264 kts | 122° |
| 2026-04-20 18:31 | 24.87891 | 55.01514 | 7995 ft | 264 kts | 122° |
| 2026-04-20 18:31 | 24.86912 | 55.03233 | 7995 ft | 264 kts | 122° |
| 2026-04-20 18:31 | 24.85943 | 55.04933 | 7995 ft | 264 kts | 122° |
| 2026-04-20 18:32 | 24.84966 | 55.06648 | 7995 ft | 264 kts | 122° |
| 2026-04-20 18:32 | 24.83994 | 55.08354 | 7995 ft | 264 kts | 122° |
| 2026-04-20 18:32 | 24.83014 | 55.10073 | 7995 ft | 264 kts | 122° |
| 2026-04-20 18:32 | 24.82033 | 55.11794 | 7995 ft | 264 kts | 122° |
| 2026-04-20 18:33 | 24.81064 | 55.13496 | 7995 ft | 264 kts | 122° |
| 2026-04-20 18:33 | 24.80091 | 55.15203 | 7995 ft | 264 kts | 122° |
| 2026-04-20 18:33 | 24.79114 | 55.16918 | 7768 ft | 263 kts | 122° |
| 2026-04-20 18:33 | 24.78173 | 55.18571 | 7453 ft | 247 kts | 122° |
| 2026-04-20 18:34 | 24.77288 | 55.20127 | 7105 ft | 236 kts | 122° |
| 2026-04-20 18:34 | 24.76424 | 55.21646 | 6782 ft | 234 kts | 122° |
| 2026-04-20 18:34 | 24.75560 | 55.23165 | 6405 ft | 236 kts | 122° |
| 2026-04-20 18:34 | 24.74690 | 55.24696 | 6039 ft | 237 kts | 122° |
| 2026-04-20 18:35 | 24.73820 | 55.26226 | 5673 ft | 238 kts | 122° |
| 2026-04-20 18:35 | 24.72940 | 55.27775 | 5304 ft | 239 kts | 122° |
| 2026-04-20 18:35 | 24.72062 | 55.29319 | 4937 ft | 240 kts | 122° |
| 2026-04-20 18:35 | 24.71179 | 55.30871 | 4569 ft | 241 kts | 122° |
| 2026-04-20 18:36 | 24.70282 | 55.32448 | 4196 ft | 242 kts | 122° |
| 2026-04-20 18:36 | 24.69397 | 55.34005 | 3828 ft | 242 kts | 122° |
| 2026-04-20 18:36 | 24.68633 | 55.35641 | 3441 ft | 243 kts | 107° |
| 2026-04-20 18:36 | 24.68300 | 55.37461 | 3079 ft | 243 kts | 92° |
| 2026-04-20 18:37 | 24.68278 | 55.39280 | 2913 ft | 233 kts | 90° |
| 2026-04-20 18:37 | 24.68284 | 55.40993 | 2831 ft | 213 kts | 83° |
| 2026-04-20 18:37 | 24.68704 | 55.42461 | 2805 ft | 193 kts | 66° |
| 2026-04-20 18:37 | 24.69250 | 55.43815 | 2885 ft | 196 kts | 65° |
| 2026-04-20 18:38 | 24.70086 | 55.44994 | 2886 ft | 200 kts | 35° |
| 2026-04-20 18:38 | 24.71336 | 55.45622 | 2907 ft | 201 kts | 18° |
| 2026-04-20 18:38 | 24.72692 | 55.46064 | 2873 ft | 201 kts | 6° |
| 2026-04-20 18:38 | 24.74068 | 55.46078 | 2896 ft | 200 kts | 351° |
| 2026-04-20 18:39 | 24.75337 | 55.45495 | 2899 ft | 198 kts | 320° |
| 2026-04-20 18:39 | 24.76176 | 55.44327 | 2897 ft | 198 kts | 294° |
| 2026-04-20 18:39 | 24.76639 | 55.42883 | 2884 ft | 199 kts | 278° |
| 2026-04-20 18:39 | 24.76613 | 55.41388 | 2896 ft | 197 kts | 259° |
| 2026-04-20 18:40 | 24.76709 | 55.39887 | 2883 ft | 198 kts | 290° |
| 2026-04-20 18:40 | 24.77321 | 55.38557 | 2902 ft | 199 kts | 298° |
| 2026-04-20 18:40 | 24.77997 | 55.37233 | 2883 ft | 196 kts | 299° |
| 2026-04-20 18:40 | 24.78660 | 55.35983 | 2857 ft | 182 kts | 300° |
| 2026-04-20 18:41 | 24.79285 | 55.34829 | 2820 ft | 169 kts | 300° |
| 2026-04-20 18:41 | 24.79895 | 55.33715 | 2884 ft | 176 kts | 300° |
| 2026-04-20 18:41 | 24.80578 | 55.32473 | 2995 ft | 195 kts | 301° |
| 2026-04-20 18:41 | 24.81272 | 55.31219 | 2870 ft | 183 kts | 301° |
| 2026-04-20 18:42 | 24.81924 | 55.30046 | 2623 ft | 181 kts | 301° |
| 2026-04-20 18:42 | 24.82570 | 55.28882 | 2387 ft | 177 kts | 301° |
| 2026-04-20 18:42 | 24.83212 | 55.27728 | 2140 ft | 174 kts | 301° |
| 2026-04-20 18:42 | 24.83838 | 55.26603 | 1914 ft | 170 kts | 301° |
| 2026-04-20 18:43 | 24.84438 | 55.25524 | 1817 ft | 165 kts | 301° |
| 2026-04-20 18:43 | 24.85035 | 55.24433 | 1717 ft | 168 kts | 301° |
| 2026-04-20 18:43 | 24.85654 | 55.23383 | 1625 ft | 157 kts | 300° |
| 2026-04-20 18:43 | 24.86236 | 55.22366 | 1359 ft | 159 kts | 301° |
| 2026-04-20 18:44 | 24.86836 | 55.21339 | 1026 ft | 164 kts | 298° |
| 2026-04-20 18:44 | 24.87390 | 55.20278 | 811 ft | 160 kts | 300° |
| 2026-04-20 18:44 | 24.87950 | 55.19233 | 527 ft | 158 kts | 301° |
| 2026-04-20 18:44 | 24.88505 | 55.18218 | 269 ft | 152 kts | 300° |
| 2026-04-20 18:45 | 24.89028 | 55.17250 | 151 ft | 142 kts | 301° |
| 2026-04-20 18:45 | 24.89345 | 55.16586 | 128 ft | 39 kts | 280° |
| 2026-04-20 18:45 | 24.89352 | 55.16536 | 127 ft | 0 kts | 277° |
| 2026-04-20 18:45 | 24.89354 | 55.16520 | 126 ft | 4 kts | 276° |
| 2026-04-20 18:46 | 24.89354 | 55.16466 | 126 ft | 9 kts | 266° |
| 2026-04-20 18:46 | 24.89357 | 55.16380 | 124 ft | 13 kts | 277° |
| 2026-04-20 18:46 | 24.89360 | 55.16362 | 124 ft | 0 kts | 278° |
| 2026-04-20 18:47 | 24.89361 | 55.16333 | 123 ft | 10 kts | 269° |
| 2026-04-20 18:47 | 24.89374 | 55.16198 | 120 ft | 24 kts | 271° |
| 2026-04-20 18:47 | 24.89366 | 55.16042 | 120 ft | 18 kts | 300° |
| 2026-04-20 18:47 | 24.89422 | 55.15934 | 118 ft | 14 kts | 288° |
| 2026-04-20 18:48 | 24.89381 | 55.15848 | 117 ft | 12 kts | 218° |
| 2026-04-20 18:48 | 24.89314 | 55.15798 | 117 ft | 10 kts | 211° |
| 2026-04-20 18:48 | 24.89258 | 55.15761 | 118 ft | 10 kts | 211° |
| 2026-04-20 18:48 | 24.89189 | 55.15715 | 117 ft | 13 kts | 211° |
| 2026-04-20 18:49 | 24.89097 | 55.15653 | 116 ft | 17 kts | 211° |
| 2026-04-20 18:49 | 24.88986 | 55.15580 | 117 ft | 19 kts | 211° |
| 2026-04-20 18:49 | 24.88863 | 55.15498 | 119 ft | 21 kts | 211° |
| 2026-04-20 18:49 | 24.88729 | 55.15408 | 120 ft | 23 kts | 208° |
| 2026-04-20 18:50 | 24.88577 | 55.15311 | 120 ft | 26 kts | 211° |
| 2026-04-20 18:50 | 24.88415 | 55.15221 | 121 ft | 24 kts | 187° |
| 2026-04-20 18:50 | 24.88355 | 55.15256 | 121 ft | 0 kts | 108° |